createdAt,value
2022-09-17T00:13:55.900Z,14.00
2022-09-17T00:20:48.228Z,14.10
2022-09-17T00:51:42.807Z,14.00
2022-09-17T00:55:17.692Z,13.90
2022-09-17T01:05:42.799Z,13.90
2022-09-17T01:13:10.188Z,13.90
2022-09-17T01:16:46.006Z,13.90
2022-09-17T01:24:49.036Z,13.70
2022-09-17T01:28:47.498Z,13.70
2022-09-17T01:32:20.022Z,13.60
2022-09-17T01:35:56.601Z,13.50
2022-09-17T01:43:06.002Z,13.40
2022-09-17T01:46:37.057Z,13.40
2022-09-17T01:50:11.535Z,13.40
2022-09-17T01:53:45.529Z,13.40
2022-09-17T01:57:16.954Z,13.30
2022-09-17T02:04:41.813Z,13.40
2022-09-17T02:08:10.993Z,13.40
2022-09-17T02:11:38.076Z,13.40
2022-09-17T02:15:07.459Z,13.50
2022-09-17T02:18:41.206Z,13.50
2022-09-17T02:22:16.131Z,13.50
2022-09-17T02:29:24.234Z,13.50
2022-09-17T02:43:15.006Z,13.50
2022-09-17T02:47:01.323Z,13.50
2022-09-17T02:51:03.099Z,13.40
2022-09-17T02:54:35.970Z,13.40
2022-09-17T02:58:10.496Z,13.40
2022-09-17T03:01:44.402Z,13.40
2022-09-17T03:05:09.537Z,13.40
2022-09-17T03:08:40.054Z,13.50
2022-09-17T03:12:04.194Z,13.50
2022-09-17T03:15:29.034Z,13.40
2022-09-17T03:22:16.184Z,13.40
2022-09-17T03:32:28.691Z,13.30
2022-09-17T03:46:03.769Z,13.10
2022-09-17T03:49:28.564Z,13.20
2022-09-17T03:59:39.801Z,13.10
2022-09-17T04:06:29.146Z,13.10
2022-09-17T04:13:18.271Z,13.00
2022-09-17T04:20:07.299Z,12.90
2022-09-17T04:23:32.241Z,12.90
2022-09-17T04:30:20.039Z,12.80
2022-09-17T04:37:07.360Z,12.80
2022-09-17T04:40:32.869Z,12.80
2022-09-17T04:43:56.810Z,12.80
2022-09-17T04:47:20.427Z,12.80
2022-09-17T04:50:44.242Z,12.80
2022-09-17T04:54:08.070Z,12.80
2022-09-17T04:57:32.911Z,12.90
2022-09-17T05:00:56.580Z,12.90
2022-09-17T05:04:20.367Z,12.90
2022-09-17T05:07:44.494Z,12.90
2022-09-17T05:11:07.971Z,12.90
2022-09-17T05:14:32.889Z,12.90
2022-09-17T05:17:56.421Z,13.00
2022-09-17T05:21:20.706Z,13.00
2022-09-17T05:24:44.081Z,13.00
2022-09-17T05:28:07.734Z,13.00
2022-09-17T05:31:32.651Z,13.00
2022-09-17T05:34:56.406Z,13.00
2022-09-17T05:38:19.825Z,13.00
2022-09-17T05:41:43.236Z,13.00
2022-09-17T05:45:09.005Z,13.10
2022-09-17T05:48:34.497Z,13.10
2022-09-17T05:51:57.965Z,13.10
2022-09-17T05:55:23.918Z,13.10
2022-09-17T05:58:47.646Z,13.10
2022-09-17T06:02:14.942Z,13.10
2022-09-17T06:05:40.389Z,13.10
2022-09-17T06:09:04.184Z,13.20
2022-09-17T06:12:27.853Z,13.20
2022-09-17T06:15:53.063Z,13.40
2022-09-17T06:19:16.824Z,13.50
2022-09-17T06:22:41.629Z,13.60
2022-09-17T06:26:07.637Z,13.70
2022-09-17T06:29:31.107Z,13.80
2022-09-17T06:32:54.575Z,13.80
2022-09-17T06:36:18.228Z,13.80
2022-09-17T06:39:43.094Z,13.80
2022-09-17T06:43:07.358Z,13.90
2022-09-17T06:46:31.352Z,13.90
2022-09-17T06:49:57.028Z,13.90
2022-09-17T06:53:20.882Z,13.90
2022-09-17T06:56:48.073Z,13.90
2022-09-17T07:00:13.725Z,13.90
2022-09-17T07:03:37.337Z,13.80
2022-09-17T07:13:50.744Z,13.80
2022-09-17T07:17:14.912Z,13.80
2022-09-17T07:20:40.267Z,13.80
2022-09-17T07:24:04.669Z,13.80
2022-09-17T07:27:29.860Z,13.70
2022-09-17T07:30:56.756Z,13.70
2022-09-17T07:34:20.840Z,13.60
2022-09-17T07:37:45.208Z,13.50
2022-09-17T07:41:13.407Z,13.40
2022-09-17T07:44:37.007Z,13.40
2022-09-17T07:48:01.949Z,13.30
2022-09-17T07:51:28.411Z,13.30
2022-09-17T07:54:52.092Z,13.20
2022-09-17T07:58:15.672Z,13.20
2022-09-17T08:01:39.382Z,13.20
2022-09-17T08:05:05.459Z,13.20
2022-09-17T08:15:20.633Z,13.30
2022-09-17T08:18:46.249Z,13.40
2022-09-17T08:22:11.083Z,13.40
2022-09-17T08:25:34.637Z,13.50
2022-09-17T08:28:58.668Z,13.50
2022-09-17T08:32:22.231Z,13.60
2022-09-17T08:35:53.076Z,13.60
2022-09-17T08:39:18.190Z,13.70
2022-09-17T08:42:54.163Z,13.80
2022-09-17T08:49:50.684Z,13.90
2022-09-17T08:53:41.898Z,14.10
2022-09-17T08:57:19.603Z,14.20
2022-09-17T09:00:51.884Z,14.40
2022-09-17T09:04:50.438Z,14.60
2022-09-17T09:08:28.029Z,14.90
2022-09-17T09:12:02.472Z,15.20
2022-09-17T09:15:39.422Z,15.40
2022-09-17T09:19:19.107Z,15.50
2022-09-17T09:22:50.920Z,15.50
2022-09-17T09:26:19.794Z,15.50
2022-09-17T09:30:02.117Z,15.40
2022-09-17T09:33:33.600Z,15.40
2022-09-17T09:37:14.604Z,15.40
2022-09-17T09:40:44.095Z,15.40
2022-09-17T09:44:13.472Z,15.50
2022-09-17T09:47:59.015Z,15.50
2022-09-17T09:51:42.028Z,15.50
2022-09-17T09:55:30.076Z,15.60
2022-09-17T09:58:53.717Z,15.60
2022-09-17T10:05:59.468Z,15.60
2022-09-17T10:09:24.384Z,15.60
2022-09-17T10:12:48.140Z,15.60
2022-09-17T10:16:21.325Z,15.60
2022-09-17T10:19:46.660Z,15.60
2022-09-17T10:23:13.323Z,15.70
2022-09-17T10:26:39.225Z,15.80
2022-09-17T10:30:15.912Z,16.10
2022-09-17T10:33:57.378Z,16.50
2022-09-17T10:37:37.081Z,17.00
2022-09-17T10:41:17.546Z,17.70
2022-09-17T10:44:56.455Z,18.40
2022-09-17T10:48:23.039Z,18.80
2022-09-17T10:51:48.932Z,19.10
2022-09-17T10:55:33.538Z,19.40
2022-09-17T10:59:11.547Z,19.90
2022-09-17T11:03:23.069Z,20.30
2022-09-17T11:07:23.660Z,20.60
2022-09-17T11:11:02.307Z,20.90
2022-09-17T11:14:50.497Z,21.00
2022-09-17T11:18:37.585Z,21.00
2022-09-17T11:22:12.686Z,20.90
2022-09-17T11:25:56.091Z,20.90
2022-09-17T11:29:51.692Z,21.00
2022-09-17T11:34:05.881Z,20.80
2022-09-17T11:37:37.487Z,20.50
2022-09-17T11:41:07.735Z,20.30
2022-09-17T11:44:38.335Z,20.10
2022-09-17T11:48:11.852Z,19.90
2022-09-17T11:51:44.324Z,19.70
2022-09-17T11:55:21.684Z,19.60
2022-09-17T11:58:53.926Z,19.60
2022-09-17T12:02:30.056Z,19.70
2022-09-17T12:06:04.037Z,19.80
2022-09-17T12:09:40.689Z,19.80
2022-09-17T12:13:19.986Z,19.70
2022-09-17T12:16:48.151Z,19.50
2022-09-17T12:20:27.778Z,19.30
2022-09-17T12:24:00.101Z,19.00
2022-09-17T12:27:40.611Z,18.80
2022-09-17T12:31:15.427Z,18.40
2022-09-17T12:34:58.186Z,17.80
2022-09-17T12:38:49.238Z,17.50
2022-09-17T12:42:35.155Z,17.30
2022-09-17T12:46:21.486Z,17.20
2022-09-17T12:50:07.190Z,17.20
2022-09-17T12:53:38.016Z,17.20
2022-09-17T12:57:18.173Z,17.10
2022-09-17T13:00:49.945Z,17.00
2022-09-17T13:05:01.016Z,16.90
2022-09-17T13:09:14.582Z,16.70
2022-09-17T13:12:50.422Z,16.60
2022-09-17T13:16:23.869Z,16.40
2022-09-17T13:20:00.493Z,16.20
2022-09-17T13:23:39.407Z,16.10
2022-09-17T13:27:06.611Z,16.00
2022-09-17T13:30:58.843Z,15.90
2022-09-17T13:34:32.168Z,15.80
2022-09-17T13:38:00.549Z,15.80
2022-09-17T13:44:54.338Z,15.90
2022-09-17T13:48:25.787Z,15.90
2022-09-17T13:51:54.844Z,16.00
2022-09-17T13:55:37.189Z,16.10
2022-09-17T13:59:09.946Z,16.20
2022-09-17T14:06:53.471Z,16.30
2022-09-17T14:10:42.058Z,16.40
2022-09-17T14:14:49.594Z,16.50
2022-09-17T14:18:58.896Z,16.50
2022-09-17T14:22:28.040Z,16.60
2022-09-17T14:25:56.898Z,16.70
2022-09-17T14:29:47.022Z,16.70
2022-09-17T14:33:19.386Z,16.80
2022-09-17T14:36:43.951Z,16.80
2022-09-17T14:40:11.699Z,16.80
2022-09-17T14:43:46.606Z,16.80
2022-09-17T14:47:19.270Z,16.90
2022-09-17T14:50:42.940Z,16.90
2022-09-17T14:54:23.447Z,17.00
2022-09-17T14:57:50.782Z,17.10
2022-09-17T15:01:26.180Z,17.10
2022-09-17T15:08:17.853Z,17.20
2022-09-17T15:15:20.356Z,17.30
2022-09-17T15:18:50.649Z,17.20
2022-09-17T15:22:19.161Z,17.20
2022-09-17T15:36:14.292Z,16.90
2022-09-17T15:39:45.806Z,16.70
2022-09-17T15:50:17.953Z,16.70
2022-09-17T15:53:53.362Z,16.70
2022-09-17T16:04:35.160Z,16.80
2022-09-17T16:18:33.797Z,16.60
2022-09-17T16:25:24.917Z,16.40
2022-09-17T16:28:54.905Z,16.30
2022-09-17T16:32:18.504Z,16.30
2022-09-17T16:35:43.060Z,16.30
2022-09-17T16:42:32.343Z,16.50
2022-09-17T17:30:22.351Z,15.90
2022-09-17T17:33:45.909Z,15.80
2022-09-17T17:43:59.837Z,15.40
2022-09-17T18:01:01.230Z,15.20
2022-09-17T18:04:24.737Z,15.20
2022-09-17T18:21:27.591Z,17.00
2022-09-17T18:28:16.419Z,14.60
2022-09-17T18:31:39.998Z,14.50
2022-09-17T19:05:44.166Z,14.10
2022-09-17T19:16:00.258Z,13.90
2022-09-17T19:19:25.107Z,13.90
2022-09-17T19:22:50.701Z,13.60
2022-09-17T19:26:17.812Z,13.40
2022-09-17T19:29:41.225Z,13.40
2022-09-17T19:33:04.895Z,13.40
2022-09-17T19:36:29.802Z,13.10
2022-09-17T19:39:53.373Z,13.00
2022-09-17T19:43:16.908Z,13.80
2022-09-17T19:46:40.458Z,12.80
2022-09-17T19:50:04.020Z,12.80
2022-09-17T19:53:28.929Z,12.70
2022-09-17T19:56:52.502Z,12.70
2022-09-17T20:00:17.322Z,12.70
2022-09-17T20:03:42.442Z,12.70
2022-09-17T20:10:31.196Z,12.70
2022-09-17T20:13:58.467Z,12.70
2022-09-17T20:27:35.035Z,12.80
2022-09-17T20:31:03.296Z,12.80
2022-09-17T20:45:00.981Z,12.70
2022-09-17T20:58:39.928Z,12.60
2022-09-17T21:05:28.572Z,12.60
2022-09-17T21:08:54.622Z,12.60
2022-09-17T21:15:41.802Z,12.70
2022-09-17T21:19:09.540Z,12.80
2022-09-17T21:26:04.491Z,12.90
2022-09-17T21:43:08.644Z,13.00
2022-09-17T21:46:35.536Z,13.10
2022-09-17T21:53:24.087Z,13.00
2022-09-17T22:00:13.568Z,13.20
2022-09-17T22:03:37.884Z,13.20
2022-09-17T22:07:02.166Z,13.10
2022-09-17T22:10:27.082Z,13.10
2022-09-17T22:13:55.318Z,13.10
2022-09-17T22:17:18.735Z,13.00
2022-09-17T22:20:42.145Z,13.00
2022-09-17T22:24:07.783Z,13.00
2022-09-17T22:27:32.530Z,12.90
2022-09-17T22:34:22.928Z,12.80
2022-09-17T22:41:14.687Z,12.70
2022-09-17T22:44:40.981Z,12.80
2022-09-17T22:48:06.216Z,12.70
2022-09-17T22:51:31.775Z,12.70
2022-09-17T22:54:55.174Z,12.70
2022-09-17T22:58:20.896Z,12.70
2022-09-17T23:01:45.849Z,12.80
2022-09-17T23:08:34.558Z,10.30
2022-09-17T23:18:51.253Z,13.40
2022-09-17T23:29:05.176Z,12.90
2022-09-17T23:32:29.082Z,12.90
2022-09-17T23:35:53.792Z,12.90
2022-09-17T23:39:17.250Z,12.90
2022-09-17T23:52:53.471Z,13.00
2022-09-17T23:56:21.171Z,13.00
